Recife Curado, Brazil

7:23 PM BRT on August 30, 2014 (GMT -0300)
Guararapes International | Change Station
CLOSE
Current Station
Airport
Location: Recife,
Elevation: 30 ft
Nearby Weather Stations

Elev 30 ft 8.13 °S, 34.92 °W | Updated 23 minutes ago

Scattered Clouds
Scattered Clouds
77 °F
Feels Like 77 °F
N
15
Wind Variable Wind from SSE

Today
High -- | Low -- °F
--% Chance of Precip.
Yesterday
High -- | Low -- °F
Precip. -- in
5:22 AM 5:18 PM
Waxing Crescent, 25% visible
Pressure 30.01 in
Visibility 6.2 miles
Clouds Scattered Clouds 2300 ft
Dew Point 70 °F
Humidity 78%
Rainfall 0.00 in
Snow Depth Not available.
UV 0 out of 12
Pollen Not available.
Air Quality Not available.
Flu Activity Not available.
METAR SBRF 302200Z 15013KT 9999 SCT023 25/21 Q1016

More Conditions Fewer Conditions

Pressure 30.01 in
Visibility 6.2 miles
Clouds Scattered Clouds 2300 ft
Dew Point 70 °F
Humidity 78%
Rainfall 0.00 in
Snow Depth Not available.
UV 0 out of 12
Pollen Not available.
Air Quality Not available.
Flu Activity Not available.
METAR SBRF 302200Z 15013KT 9999 SCT023 25/21 Q1016

More Conditions Fewer Conditions

10-Day Weather Forecast

Almanac

Astronomy

Aug. 30, 2014 Rise Set
Actual Time 5:22 AM BRT 5:18 PM BRT
Civil Twilight 5:01 AM BRT 5:39 PM BRT
Nautical Twilight 4:36 AM BRT 6:04 PM BRT
Astronomical Twilight 4:12 AM BRT 6:28 PM BRT
Moon 8:38 AM BRT 9:15 PM BRT
Length of Visible Light 12h 38m
Length of Day
11h 56m
Tomorrow will be 0m 25s longer.
Waxing Crescent, 25% of the Moon is Illuminated
Today
Waxing Crescent
Sep 2
First Quarter
Sep 8
Full
Sep 15
Last Quarter
Sep 24
New

Today's Extremes

Country Highs Country Lows

Community

WunderPhotos

Upload Photos

1,748,657 photos uploaded!

WunderBlogs® & News

Nearby

Snow Depth

Not available.

Earthquake Activity

City Distance Mag. Time & Date
No recent earthquake activity has been reported nearby.
Minimum magnitude displayed is 2.5.

Coastal Water Temperatures

Place Temperature
No Stations Reporting

Nearby Weather Stations